Terminal Aerodrome Forecast
Issued by NWS Miami, FL

Home | Current Version | Previous Version | Text Only | Print | Product List | Glossary On
Versions: 1 2 3 4 5 6 7 8 9 10 11 12 13 14 15 16 17 18 19 20 21 22 23 24 25 26 27
000
FTUS42 KMFL 190523
TAFAPF
TAF
KAPF 190523Z 1906/2006 VRB04KT P6SM SCT025 BKN250
     FM190700 22006KT P6SM VCSH SCT025 BKN100
     FM191500 25010G20KT P6SM FEW035
     FM200100 29007KT P6SM SKC=

USA.gov is the U.S. government's official web portal to all federal, state and local government web resources and services.